Flight Track Log - Related Links

Times and Time Zones

All times are in EDT time to prevent confusion due to time zone crossing. See the DAL1028 flight status page for this flight to view local times or setup timezone preferences in your user account.

Time Position Orientation Groundspeed Altitude Reporting Facility
EDT Latitude Longitude Course Direction KTS MPH feet Rate Location/Type
Mon 01:40:17 PM 33.6333 -84.5000 64° Northeast 211 243 2,500  Level Atlanta TRACON
Mon 01:40:57 PM 33.6075 -84.5403 232° Southwest 464 534 3,700 2,460 Climbing Atlanta Center
Mon 01:41:57 PM 33.5467 -84.5922 215° Southwest 295 339 6,600 2,800 Climbing Atlanta Center
Mon 01:42:00 PM 33.7145 -84.0204 101° East  Level FlightAware Approximate
Mon 01:42:57 PM 33.4717 -84.5717 167° South 279 321 9,300  Level Atlanta Center
Mon 01:43:00 PM 33.6923 -83.8865 101° East  Level FlightAware Approximate
Mon 01:43:57 PM 33.4533 -84.4669 102° East 257 296 10,500  Level Atlanta Center
Mon 01:44:00 PM 33.6699 -83.7527 101° East  Level FlightAware Approximate
Mon 01:44:57 PM 33.4558 -84.3375 89° East 342 394 12,500  Level Atlanta Center
Mon 01:45:00 PM 33.6554 -83.6201 64° Northeast  Level FlightAware Approximate
Mon 01:45:57 PM 33.4831 -84.2106 76° East 389 448 15,100  Level Atlanta Center
Mon 01:46:57 PM 33.5356 -84.0861 63° Northeast 394 453 17,400 2,000 Climbing Atlanta Center
Mon 01:47:57 PM 33.5875 -83.9614 63° Northeast 411 473 19,100 1,650 Climbing Atlanta Center
Mon 01:48:57 PM 33.6228 -83.8267 73° East 417 480 20,700 1,650 Climbing Atlanta Center
Mon 01:49:57 PM 33.6539 -83.6819 75° East 437 503 22,400 1,750 Climbing Atlanta Center
Mon 01:50:57 PM 33.7014 -83.5394 68° East 446 513 24,200 1,600 Climbing Atlanta Center
Mon 01:51:57 PM 33.7572 -83.4042 64° Northeast 446 513 25,600 1,150 Climbing Atlanta Center
Mon 01:52:57 PM 33.8064 -83.2789 65° Northeast 453 521 26,500 1,200 Climbing Atlanta Center
Mon 01:53:57 PM 33.8639 -83.1358 64° Northeast 453 521 28,000 1,600 Climbing Atlanta Center
Mon 01:54:57 PM 33.9214 -83.0000 63° Northeast 461 531 29,700 1,500 Climbing Atlanta Center
Mon 01:55:57 PM 33.9764 -82.8564 65° Northeast 461 531 31,000 1,250 Climbing Atlanta Center
Mon 01:56:57 PM 34.0292 -82.7178 65° Northeast 461 531 32,200 1,300 Climbing Atlanta Center
Mon 01:57:57 PM 34.0903 -82.5764 62° Northeast 461 531 33,600 1,250 Climbing Atlanta Center
Mon 01:58:57 PM 34.1489 -82.4272 65° Northeast 450 518 34,700 1,250 Climbing Atlanta Center
Mon 01:59:57 PM 34.2014 -82.2931 65° Northeast 445 512 36,100 1,100 Climbing Atlanta Center
Mon 02:00:57 PM 34.2536 -82.1639 64° Northeast 439 505 36,900 400 Climbing Atlanta Center
Mon 02:01:57 PM 34.3081 -82.0319 63° Northeast 428 493 36,900  Level Atlanta Center
Mon 02:02:57 PM 34.3558 -81.8975 67° East 428 493 36,900  Level Atlanta Center
Mon 02:03:57 PM 34.3908 -81.7556 73° East 428 493 36,900  Level Atlanta Center
Mon 02:04:57 PM 34.4236 -81.6136 74° East 433 498 36,900  Level Atlanta Center
Mon 02:05:57 PM 34.4478 -81.4644 79° East 433 498 36,900  Level Atlanta Center
Mon 02:06:57 PM 34.4694 -81.3150 80° East 443 510 36,900  Level Atlanta Center
Mon 02:07:57 PM 34.4894 -81.1833 80° East 443 510 36,900  Level Atlanta Center
Mon 02:08:57 PM 34.5150 -81.0264 79° East 455 524 36,900  Level Atlanta Center
Mon 02:09:57 PM 34.5383 -80.8792 79° East 463 533 36,900  Level Atlanta Center
Mon 02:10:57 PM 34.5656 -80.7217 78° East 458 527 36,900  Level Atlanta Center
Mon 02:11:57 PM 34.5906 -80.5694 79° East 465 535 36,900  Level Atlanta Center
Mon 02:12:57 PM 34.6194 -80.4142 77° East 465 535 36,900  Level Atlanta Center
Mon 02:13:29 PM 34.6328 -80.3347 78° East 469 540 36,900  Level Washington Center
Mon 02:14:29 PM 34.6597 -80.1797 78° East 469 540 36,900  Level Washington Center
Mon 02:15:29 PM 34.6889 -80.0097 78° East 469 540 36,900  Level Washington Center
Mon 02:16:30 PM 34.7169 -79.8697 76° East 469 540 36,900  Level Washington Center
Mon 02:17:28 PM 34.7539 -79.7150 74° East 469 540 36,900  Level Washington Center
Mon 02:18:28 PM 34.7942 -79.5678 72° East 469 540 36,900  Level Washington Center
Mon 02:19:28 PM 34.8389 -79.4131 71° East 469 540 36,900  Level Washington Center
Mon 02:20:29 PM 34.8833 -79.2606 70° East 475 547 36,900  Level Washington Center
Mon 02:21:29 PM 34.9297 -79.1108 69° East 475 547 36,900  Level Washington Center
Mon 02:22:30 PM 34.9756 -78.9608 70° East 475 547 36,900  Level Washington Center
Mon 02:23:30 PM 35.0217 -78.8081 70° East 475 547 36,900  Level Washington Center
Mon 02:24:28 PM 35.0714 -78.6550 68° East 480 552 36,900  Level Washington Center
Mon 02:25:29 PM 35.1192 -78.5019 69° East 480 552 36,900  Level Washington Center
Mon 02:26:30 PM 35.1728 -78.3539 66° East 480 552 36,900  Level Washington Center
Mon 02:27:28 PM 35.2242 -78.2008 68° East 480 552 36,900  Level Washington Center
Mon 02:28:28 PM 35.2758 -78.0294 70° East 488 562 36,900  Level Washington Center
Mon 02:29:28 PM 35.2978 -77.8672 81° East 482 555 36,900  Level Washington Center
Mon 02:30:29 PM 35.3194 -77.7050 81° East 482 555 36,900  Level Washington Center
Mon 02:31:30 PM 35.3431 -77.5400 80° East 482 555 36,900  Level Washington Center
Mon 02:32:28 PM 35.3644 -77.3750 81° East 482 555 36,900  Level Washington Center
Mon 02:33:28 PM 35.3878 -77.2125 80° East 482 555 36,900  Level Washington Center
Mon 02:34:29 PM 35.4106 -77.0497 80° East 482 555 36,900  Level Washington Center
Mon 02:35:30 PM 35.4519 -76.8950 72° East 482 555 36,900  Level Washington Center
Mon 02:36:28 PM 35.5617 -76.7997 35° Northeast 453 521 36,900  Level Washington Center
Mon 02:37:29 PM 35.6686 -76.7478 22° Northeast 438 504 36,900  Level Washington Center
Mon 02:38:29 PM 35.7942 -76.6931 19° North 456 525 36,900  Level Washington Center
Mon 02:39:28 PM 35.9200 -76.6386 19° North 467 537 36,900  Level Washington Center
Mon 02:40:28 PM 36.0456 -76.5811 20° North 472 543 36,900  Level Washington Center
Mon 02:41:29 PM 36.1753 -76.5261 19° North 477 549 36,900  Level Washington Center
Mon 02:42:30 PM 36.3031 -76.4683 20° North 477 549 36,900  Level Washington Center
Mon 02:43:28 PM 36.4328 -76.4103 20° North 482 555 36,900  Level Washington Center
Mon 02:44:28 PM 36.5625 -76.3547 19° North 489 563 36,900  Level Washington Center
Mon 02:45:30 PM 36.6922 -76.2964 20° North 489 563 36,900  Level Washington Center
Mon 02:46:30 PM 36.8367 -76.2200 23° Northeast 489 563 36,900  Level Washington Center
Mon 02:47:30 PM 36.9622 -76.1431 26° Northeast 494 568 36,900  Level Washington Center
Mon 02:48:28 PM 37.0958 -76.0683 24° Northeast 509 586 36,900  Level Washington Center
Mon 02:49:29 PM 37.2214 -75.9883 27° Northeast 504 580 36,900  Level Washington Center
Mon 02:50:29 PM 37.3489 -75.9106 26° Northeast 504 580 36,900  Level Washington Center
Mon 02:51:29 PM 37.4764 -75.8325 26° Northeast 504 580 36,900  Level Washington Center
Mon 02:52:30 PM 37.6036 -75.7517 27° Northeast 504 580 36,900  Level Washington Center
Mon 02:53:31 PM 37.7311 -75.6758 25° Northeast 504 580 36,900  Level Washington Center
Mon 02:54:28 PM 37.8583 -75.5944 27° Northeast 499 574 36,900  Level Washington Center
Mon 02:55:29 PM 37.9833 -75.5153 27° Northeast 499 574 36,900  Level Washington Center
Mon 02:56:29 PM 38.1125 -75.4386 25° Northeast 509 586 36,900  Level Washington Center
Mon 02:57:30 PM 38.2417 -75.3592 26° Northeast 509 586 36,900  Level Washington Center
Mon 02:58:28 PM 38.3583 -75.2739 30° Northeast 509 586 36,900  Level Washington Center
Mon 02:59:28 PM 38.4894 -75.1939 26° Northeast 509 586 36,900  Level Washington Center
Mon 03:00:29 PM 38.6164 -75.1133 26° Northeast 509 586 36,900  Level Washington Center
Mon 03:01:30 PM 38.7431 -75.0275 28° Northeast 509 586 36,900  Level Washington Center
Mon 03:02:28 PM 38.8739 -74.9464 26° Northeast 509 586 36,900 -1,059 Level Washington Center
Mon 03:03:29 PM 39.0006 -74.8650 27° Northeast 509 586 34,800 -3,148 Descending Washington Center
Mon 03:04:30 PM 39.1292 -74.7647 31° Northeast 516 594 30,500 -3,750 Descending Washington Center
Mon 03:05:29 PM 39.2408 -74.6431 40° Northeast 526 605 27,300 -3,406 Descending Washington Center
Mon 03:07:05 PM 39.4117 -74.4603 40° Northeast 505 581 21,700 -3,308 Descending New York Center
Mon 03:08:05 PM 39.5242 -74.3342 41° Northeast 494 568 18,700 -1,932 Descending New York Center
Mon 03:09:03 PM 39.6103 -74.2417 40° Northeast 462 532 17,900 -610 Descending New York Center
Mon 03:10:03 PM 39.7075 -74.1978 19° North 394 453 17,500 -1,000 Descending New York Center
Mon 03:11:03 PM 39.8125 -74.1678 12° North 368 423 15,900 -1,537 Descending New York Center
Mon 03:12:04 PM 39.8778 -74.0736 48° Northeast 347 399 14,400 -1,475 Descending New York Center
Mon 03:13:05 PM 39.9342 -73.9897 49° Northeast 338 389 12,900 -1,339 Descending New York Center
Mon 03:14:05 PM 39.9972 -73.8950 49° Northeast 338 389 11,700 -1,200 Descending New York Center
Mon 03:15:05 PM 40.0722 -73.8169 39° Northeast 325 374 10,500 -1,373 Descending New York Center
Mon 03:16:03 PM 40.1328 -73.7303 48° Northeast 320 368 9,000 -1,678 Descending New York Center
Mon 03:17:03 PM 40.2044 -73.6978 19° North 297 342 7,200 -1,800 Descending New York Center

Login

Don't have an account? Register now (free) for customized features, flight alerts, and more!